sensor_id;sensor_type;location;lat;lon;timestamp;P1;durP1;ratioP1;P2;durP2;ratioP2
18322;SDS011;9287;49.456;11.064;2024-03-08T00:01:03;26.13;;;18.53;;
18322;SDS011;9287;49.456;11.064;2024-03-08T00:03:31;27.77;;;18.77;;
18322;SDS011;9287;49.456;11.064;2024-03-08T00:05:59;32.17;;;19.90;;
18322;SDS011;9287;49.456;11.064;2024-03-08T00:08:27;26.83;;;18.23;;
18322;SDS011;9287;49.456;11.064;2024-03-08T00:10:55;28.40;;;18.27;;
18322;SDS011;9287;49.456;11.064;2024-03-08T00:13:24;24.33;;;17.53;;
18322;SDS011;9287;49.456;11.064;2024-03-08T00:15:53;25.83;;;18.23;;
18322;SDS011;9287;49.456;11.064;2024-03-08T00:18:23;25.93;;;19.10;;
18322;SDS011;9287;49.456;11.064;2024-03-08T00:20:51;26.43;;;18.57;;
18322;SDS011;9287;49.456;11.064;2024-03-08T00:23:19;26.50;;;18.33;;
18322;SDS011;9287;49.456;11.064;2024-03-08T00:25:47;27.13;;;19.27;;
18322;SDS011;9287;49.456;11.064;2024-03-08T00:28:15;27.20;;;19.10;;
18322;SDS011;9287;49.456;11.064;2024-03-08T00:30:46;31.10;;;18.53;;
18322;SDS011;9287;49.456;11.064;2024-03-08T00:33:14;26.40;;;19.43;;
18322;SDS011;9287;49.456;11.064;2024-03-08T00:35:42;28.07;;;19.70;;
18322;SDS011;9287;49.456;11.064;2024-03-08T00:38:10;30.40;;;19.80;;
18322;SDS011;9287;49.456;11.064;2024-03-08T00:40:38;30.13;;;19.43;;
18322;SDS011;9287;49.456;11.064;2024-03-08T00:43:06;27.40;;;19.33;;
18322;SDS011;9287;49.456;11.064;2024-03-08T00:45:34;32.27;;;19.93;;
18322;SDS011;9287;49.456;11.064;2024-03-08T00:48:04;29.93;;;21.77;;
18322;SDS011;9287;49.456;11.064;2024-03-08T00:50:33;29.00;;;20.27;;
18322;SDS011;9287;49.456;11.064;2024-03-08T00:53:01;29.33;;;19.73;;
18322;SDS011;9287;49.456;11.064;2024-03-08T00:55:28;29.57;;;20.53;;
18322;SDS011;9287;49.456;11.064;2024-03-08T00:57:56;30.33;;;21.93;;
18322;SDS011;9287;49.456;11.064;2024-03-08T01:00:24;29.67;;;20.43;;
18322;SDS011;9287;49.456;11.064;2024-03-08T01:02:52;29.00;;;19.87;;
18322;SDS011;9287;49.456;11.064;2024-03-08T01:05:22;26.07;;;19.53;;
18322;SDS011;9287;49.456;11.064;2024-03-08T01:07:50;27.60;;;20.77;;
18322;SDS011;9287;49.456;11.064;2024-03-08T01:10:18;28.23;;;19.70;;
18322;SDS011;9287;49.456;11.064;2024-03-08T01:12:46;28.37;;;20.37;;
18322;SDS011;9287;49.456;11.064;2024-03-08T01:15:14;28.87;;;20.03;;
18322;SDS011;9287;49.456;11.064;2024-03-08T01:17:42;30.40;;;20.23;;
18322;SDS011;9287;49.456;11.064;2024-03-08T01:20:11;27.77;;;19.97;;
18322;SDS011;9287;49.456;11.064;2024-03-08T01:22:40;32.53;;;20.90;;
18322;SDS011;9287;49.456;11.064;2024-03-08T01:25:08;29.80;;;21.93;;
18322;SDS011;9287;49.456;11.064;2024-03-08T01:27:36;30.43;;;20.20;;
18322;SDS011;9287;49.456;11.064;2024-03-08T01:30:04;29.00;;;19.83;;
18322;SDS011;9287;49.456;11.064;2024-03-08T01:32:34;29.07;;;20.47;;
18322;SDS011;9287;49.456;11.064;2024-03-08T01:35:02;30.43;;;20.10;;
18322;SDS011;9287;49.456;11.064;2024-03-08T01:37:30;29.63;;;20.83;;
18322;SDS011;9287;49.456;11.064;2024-03-08T01:39:59;26.23;;;19.87;;
18322;SDS011;9287;49.456;11.064;2024-03-08T01:42:27;27.53;;;19.80;;
18322;SDS011;9287;49.456;11.064;2024-03-08T01:44:55;31.90;;;19.70;;
18322;SDS011;9287;49.456;11.064;2024-03-08T01:47:23;29.27;;;20.33;;
18322;SDS011;9287;49.456;11.064;2024-03-08T01:49:51;27.53;;;19.43;;
18322;SDS011;9287;49.456;11.064;2024-03-08T01:52:19;31.20;;;21.47;;
18322;SDS011;9287;49.456;11.064;2024-03-08T01:54:49;28.37;;;20.80;;
18322;SDS011;9287;49.456;11.064;2024-03-08T01:57:19;27.70;;;19.67;;
18322;SDS011;9287;49.456;11.064;2024-03-08T01:59:47;31.03;;;22.27;;
18322;SDS011;9287;49.456;11.064;2024-03-08T02:02:17;28.83;;;20.37;;
18322;SDS011;9287;49.456;11.064;2024-03-08T02:04:46;28.87;;;20.87;;
18322;SDS011;9287;49.456;11.064;2024-03-08T02:07:14;27.67;;;20.30;;
18322;SDS011;9287;49.456;11.064;2024-03-08T02:09:42;29.17;;;22.00;;
18322;SDS011;9287;49.456;11.064;2024-03-08T02:12:09;32.63;;;20.87;;
18322;SDS011;9287;49.456;11.064;2024-03-08T02:14:39;28.67;;;20.20;;
18322;SDS011;9287;49.456;11.064;2024-03-08T02:17:07;27.80;;;20.80;;
18322;SDS011;9287;49.456;11.064;2024-03-08T02:19:35;27.30;;;20.90;;
18322;SDS011;9287;49.456;11.064;2024-03-08T02:22:04;29.77;;;20.20;;
18322;SDS011;9287;49.456;11.064;2024-03-08T02:24:33;34.13;;;21.63;;
18322;SDS011;9287;49.456;11.064;2024-03-08T02:27:01;29.43;;;20.00;;
18322;SDS011;9287;49.456;11.064;2024-03-08T02:29:29;28.57;;;20.40;;
18322;SDS011;9287;49.456;11.064;2024-03-08T02:31:58;30.17;;;19.93;;
18322;SDS011;9287;49.456;11.064;2024-03-08T02:34:26;30.30;;;20.83;;
18322;SDS011;9287;49.456;11.064;2024-03-08T02:36:53;29.93;;;21.17;;
18322;SDS011;9287;49.456;11.064;2024-03-08T02:39:24;27.77;;;19.30;;
18322;SDS011;9287;49.456;11.064;2024-03-08T02:41:51;29.07;;;19.67;;
18322;SDS011;9287;49.456;11.064;2024-03-08T02:44:19;26.17;;;19.60;;
18322;SDS011;9287;49.456;11.064;2024-03-08T02:46:48;29.93;;;21.20;;
18322;SDS011;9287;49.456;11.064;2024-03-08T02:49:16;27.73;;;21.00;;
18322;SDS011;9287;49.456;11.064;2024-03-08T02:51:44;30.50;;;21.00;;
18322;SDS011;9287;49.456;11.064;2024-03-08T02:54:12;32.10;;;20.20;;
18322;SDS011;9287;49.456;11.064;2024-03-08T02:56:41;30.57;;;20.33;;
18322;SDS011;9287;49.456;11.064;2024-03-08T02:59:09;27.97;;;20.23;;
18322;SDS011;9287;49.456;11.064;2024-03-08T03:01:37;29.47;;;20.33;;
18322;SDS011;9287;49.456;11.064;2024-03-08T03:04:05;33.60;;;22.03;;
18322;SDS011;9287;49.456;11.064;2024-03-08T03:06:33;32.27;;;22.37;;
18322;SDS011;9287;49.456;11.064;2024-03-08T03:09:02;32.27;;;21.73;;
18322;SDS011;9287;49.456;11.064;2024-03-08T03:11:32;29.67;;;20.03;;
18322;SDS011;9287;49.456;11.064;2024-03-08T03:14:02;30.67;;;20.90;;
18322;SDS011;9287;49.456;11.064;2024-03-08T03:16:30;29.97;;;21.57;;
18322;SDS011;9287;49.456;11.064;2024-03-08T03:18:58;30.50;;;20.90;;
18322;SDS011;9287;49.456;11.064;2024-03-08T03:21:28;30.80;;;19.93;;
18322;SDS011;9287;49.456;11.064;2024-03-08T03:23:57;30.33;;;20.23;;
18322;SDS011;9287;49.456;11.064;2024-03-08T03:26:25;30.70;;;19.90;;
18322;SDS011;9287;49.456;11.064;2024-03-08T03:28:53;32.10;;;21.67;;
18322;SDS011;9287;49.456;11.064;2024-03-08T03:31:22;32.03;;;21.80;;
18322;SDS011;9287;49.456;11.064;2024-03-08T03:33:52;31.67;;;21.30;;
18322;SDS011;9287;49.456;11.064;2024-03-08T03:36:19;30.77;;;21.83;;
18322;SDS011;9287;49.456;11.064;2024-03-08T03:38:47;29.47;;;21.70;;
18322;SDS011;9287;49.456;11.064;2024-03-08T03:41:15;31.47;;;22.13;;
18322;SDS011;9287;49.456;11.064;2024-03-08T03:43:43;33.17;;;22.30;;
18322;SDS011;9287;49.456;11.064;2024-03-08T03:46:11;33.27;;;22.73;;
18322;SDS011;9287;49.456;11.064;2024-03-08T03:48:40;32.70;;;22.63;;
18322;SDS011;9287;49.456;11.064;2024-03-08T03:51:09;33.17;;;22.57;;
18322;SDS011;9287;49.456;11.064;2024-03-08T03:53:37;31.87;;;23.43;;
18322;SDS011;9287;49.456;11.064;2024-03-08T03:56:05;32.17;;;22.90;;
18322;SDS011;9287;49.456;11.064;2024-03-08T03:58:33;31.83;;;23.07;;
18322;SDS011;9287;49.456;11.064;2024-03-08T04:01:01;35.97;;;23.97;;
18322;SDS011;9287;49.456;11.064;2024-03-08T04:03:32;33.93;;;22.73;;
18322;SDS011;9287;49.456;11.064;2024-03-08T04:06:01;32.03;;;23.20;;
18322;SDS011;9287;49.456;11.064;2024-03-08T04:08:29;32.83;;;21.03;;
18322;SDS011;9287;49.456;11.064;2024-03-08T04:10:57;34.20;;;23.67;;
18322;SDS011;9287;49.456;11.064;2024-03-08T04:13:25;32.70;;;23.67;;
18322;SDS011;9287;49.456;11.064;2024-03-08T04:15:53;31.33;;;22.77;;
18322;SDS011;9287;49.456;11.064;2024-03-08T04:18:21;31.67;;;23.40;;
18322;SDS011;9287;49.456;11.064;2024-03-08T04:20:49;33.33;;;22.57;;
18322;SDS011;9287;49.456;11.064;2024-03-08T04:23:19;32.67;;;23.50;;
18322;SDS011;9287;49.456;11.064;2024-03-08T04:25:46;38.10;;;24.67;;
18322;SDS011;9287;49.456;11.064;2024-03-08T04:28:14;32.97;;;24.00;;
18322;SDS011;9287;49.456;11.064;2024-03-08T04:30:43;31.47;;;22.97;;
18322;SDS011;9287;49.456;11.064;2024-03-08T04:33:12;33.93;;;23.83;;
18322;SDS011;9287;49.456;11.064;2024-03-08T04:35:45;33.40;;;23.70;;
18322;SDS011;9287;49.456;11.064;2024-03-08T04:38:13;33.87;;;24.87;;
18322;SDS011;9287;49.456;11.064;2024-03-08T04:40:43;33.80;;;23.40;;
18322;SDS011;9287;49.456;11.064;2024-03-08T04:43:11;31.87;;;23.27;;
18322;SDS011;9287;49.456;11.064;2024-03-08T04:45:39;33.13;;;23.17;;
18322;SDS011;9287;49.456;11.064;2024-03-08T04:48:08;33.43;;;24.53;;
18322;SDS011;9287;49.456;11.064;2024-03-08T04:50:38;34.27;;;23.03;;
18322;SDS011;9287;49.456;11.064;2024-03-08T04:53:06;33.17;;;23.70;;
18322;SDS011;9287;49.456;11.064;2024-03-08T04:55:35;35.10;;;24.13;;
18322;SDS011;9287;49.456;11.064;2024-03-08T04:58:05;32.37;;;23.90;;
18322;SDS011;9287;49.456;11.064;2024-03-08T05:00:33;35.10;;;24.00;;
18322;SDS011;9287;49.456;11.064;2024-03-08T05:03:01;33.87;;;23.70;;
18322;SDS011;9287;49.456;11.064;2024-03-08T05:05:31;36.37;;;24.07;;
18322;SDS011;9287;49.456;11.064;2024-03-08T05:07:59;33.70;;;23.50;;
18322;SDS011;9287;49.456;11.064;2024-03-08T05:10:29;35.50;;;25.37;;
18322;SDS011;9287;49.456;11.064;2024-03-08T05:12:56;34.57;;;25.23;;
18322;SDS011;9287;49.456;11.064;2024-03-08T05:15:26;33.00;;;24.47;;
18322;SDS011;9287;49.456;11.064;2024-03-08T05:17:53;35.17;;;23.50;;
18322;SDS011;9287;49.456;11.064;2024-03-08T05:20:22;38.20;;;25.23;;
18322;SDS011;9287;49.456;11.064;2024-03-08T05:22:50;34.60;;;24.97;;
18322;SDS011;9287;49.456;11.064;2024-03-08T05:25:18;40.37;;;25.43;;
18322;SDS011;9287;49.456;11.064;2024-03-08T05:27:46;32.30;;;24.43;;
18322;SDS011;9287;49.456;11.064;2024-03-08T05:30:14;39.90;;;26.50;;
18322;SDS011;9287;49.456;11.064;2024-03-08T05:32:44;36.47;;;25.13;;
18322;SDS011;9287;49.456;11.064;2024-03-08T05:35:12;35.40;;;24.63;;
18322;SDS011;9287;49.456;11.064;2024-03-08T05:37:42;35.77;;;25.40;;
18322;SDS011;9287;49.456;11.064;2024-03-08T05:40:10;36.73;;;26.20;;
18322;SDS011;9287;49.456;11.064;2024-03-08T05:42:43;36.20;;;25.23;;
18322;SDS011;9287;49.456;11.064;2024-03-08T05:45:11;35.43;;;26.10;;
18322;SDS011;9287;49.456;11.064;2024-03-08T05:47:40;36.40;;;25.17;;
18322;SDS011;9287;49.456;11.064;2024-03-08T05:50:10;36.37;;;24.67;;
18322;SDS011;9287;49.456;11.064;2024-03-08T05:52:38;33.77;;;25.13;;
18322;SDS011;9287;49.456;11.064;2024-03-08T05:55:06;38.27;;;24.70;;
18322;SDS011;9287;49.456;11.064;2024-03-08T05:57:36;40.83;;;26.67;;
18322;SDS011;9287;49.456;11.064;2024-03-08T06:00:07;35.63;;;25.63;;
18322;SDS011;9287;49.456;11.064;2024-03-08T06:02:37;39.70;;;26.90;;
18322;SDS011;9287;49.456;11.064;2024-03-08T06:05:10;38.80;;;25.83;;
18322;SDS011;9287;49.456;11.064;2024-03-08T06:07:39;39.43;;;27.37;;
18322;SDS011;9287;49.456;11.064;2024-03-08T06:10:08;42.40;;;26.37;;
18322;SDS011;9287;49.456;11.064;2024-03-08T06:12:39;35.63;;;25.80;;
18322;SDS011;9287;49.456;11.064;2024-03-08T06:15:09;34.83;;;25.63;;
18322;SDS011;9287;49.456;11.064;2024-03-08T06:17:41;39.23;;;26.73;;
18322;SDS011;9287;49.456;11.064;2024-03-08T06:20:12;39.53;;;27.93;;
18322;SDS011;9287;49.456;11.064;2024-03-08T06:22:41;34.50;;;26.73;;
18322;SDS011;9287;49.456;11.064;2024-03-08T06:25:11;41.20;;;27.10;;
18322;SDS011;9287;49.456;11.064;2024-03-08T06:27:40;43.57;;;28.10;;
18322;SDS011;9287;49.456;11.064;2024-03-08T06:30:09;39.40;;;27.60;;
18322;SDS011;9287;49.456;11.064;2024-03-08T06:32:40;37.23;;;26.50;;
18322;SDS011;9287;49.456;11.064;2024-03-08T06:35:10;41.17;;;29.43;;
18322;SDS011;9287;49.456;11.064;2024-03-08T06:37:42;38.27;;;27.27;;
18322;SDS011;9287;49.456;11.064;2024-03-08T06:40:12;39.03;;;26.00;;
18322;SDS011;9287;49.456;11.064;2024-03-08T06:42:41;36.80;;;26.00;;
18322;SDS011;9287;49.456;11.064;2024-03-08T06:45:12;40.17;;;26.33;;
18322;SDS011;9287;49.456;11.064;2024-03-08T06:47:45;39.50;;;27.57;;
18322;SDS011;9287;49.456;11.064;2024-03-08T06:50:15;38.10;;;25.73;;
18322;SDS011;9287;49.456;11.064;2024-03-08T06:52:43;41.30;;;27.00;;
18322;SDS011;9287;49.456;11.064;2024-03-08T06:55:14;41.17;;;27.93;;
18322;SDS011;9287;49.456;11.064;2024-03-08T06:57:42;41.50;;;27.47;;
18322;SDS011;9287;49.456;11.064;2024-03-08T07:00:10;40.30;;;26.33;;
18322;SDS011;9287;49.456;11.064;2024-03-08T07:02:45;36.03;;;26.37;;
18322;SDS011;9287;49.456;11.064;2024-03-08T07:05:16;38.97;;;25.53;;
18322;SDS011;9287;49.456;11.064;2024-03-08T07:07:44;38.77;;;25.97;;
18322;SDS011;9287;49.456;11.064;2024-03-08T07:10:14;39.37;;;26.73;;
18322;SDS011;9287;49.456;11.064;2024-03-08T07:12:43;37.80;;;26.43;;
18322;SDS011;9287;49.456;11.064;2024-03-08T07:15:11;40.47;;;26.03;;
18322;SDS011;9287;49.456;11.064;2024-03-08T07:17:41;40.90;;;26.47;;
18322;SDS011;9287;49.456;11.064;2024-03-08T07:20:11;41.23;;;24.87;;
18322;SDS011;9287;49.456;11.064;2024-03-08T07:22:41;42.67;;;26.50;;
18322;SDS011;9287;49.456;11.064;2024-03-08T07:25:12;42.03;;;26.17;;
18322;SDS011;9287;49.456;11.064;2024-03-08T07:27:48;38.77;;;25.57;;
18322;SDS011;9287;49.456;11.064;2024-03-08T07:30:16;36.43;;;25.10;;
18322;SDS011;9287;49.456;11.064;2024-03-08T07:32:58;38.73;;;24.57;;
18322;SDS011;9287;49.456;11.064;2024-03-08T07:35:28;41.33;;;26.07;;
18322;SDS011;9287;49.456;11.064;2024-03-08T07:37:58;36.43;;;24.10;;
18322;SDS011;9287;49.456;11.064;2024-03-08T07:40:28;36.80;;;24.20;;
18322;SDS011;9287;49.456;11.064;2024-03-08T07:42:56;41.10;;;24.10;;
18322;SDS011;9287;49.456;11.064;2024-03-08T07:45:24;34.90;;;24.10;;
18322;SDS011;9287;49.456;11.064;2024-03-08T07:47:52;38.10;;;22.17;;
18322;SDS011;9287;49.456;11.064;2024-03-08T07:50:22;32.20;;;22.37;;
18322;SDS011;9287;49.456;11.064;2024-03-08T07:52:50;34.67;;;22.20;;
18322;SDS011;9287;49.456;11.064;2024-03-08T07:55:19;37.23;;;21.87;;
18322;SDS011;9287;49.456;11.064;2024-03-08T07:57:50;29.57;;;20.53;;
18322;SDS011;9287;49.456;11.064;2024-03-08T08:00:18;29.00;;;19.97;;
18322;SDS011;9287;49.456;11.064;2024-03-08T08:02:46;28.17;;;19.63;;
18322;SDS011;9287;49.456;11.064;2024-03-08T08:05:16;28.27;;;19.80;;
18322;SDS011;9287;49.456;11.064;2024-03-08T08:07:44;32.07;;;20.33;;
18322;SDS011;9287;49.456;11.064;2024-03-08T08:10:17;26.70;;;19.57;;
18322;SDS011;9287;49.456;11.064;2024-03-08T08:12:49;25.27;;;18.30;;
18322;SDS011;9287;49.456;11.064;2024-03-08T08:15:17;25.33;;;17.10;;
18322;SDS011;9287;49.456;11.064;2024-03-08T08:17:45;25.60;;;18.13;;
18322;SDS011;9287;49.456;11.064;2024-03-08T08:20:13;26.10;;;17.57;;
18322;SDS011;9287;49.456;11.064;2024-03-08T08:22:41;26.20;;;17.93;;
18322;SDS011;9287;49.456;11.064;2024-03-08T08:25:10;26.13;;;17.97;;
18322;SDS011;9287;49.456;11.064;2024-03-08T08:27:40;27.13;;;17.67;;
18322;SDS011;9287;49.456;11.064;2024-03-08T08:30:11;22.27;;;17.20;;
18322;SDS011;9287;49.456;11.064;2024-03-08T08:32:40;22.80;;;15.97;;
18322;SDS011;9287;49.456;11.064;2024-03-08T08:35:08;20.90;;;16.70;;
18322;SDS011;9287;49.456;11.064;2024-03-08T08:37:38;21.30;;;16.13;;
18322;SDS011;9287;49.456;11.064;2024-03-08T08:40:07;21.87;;;16.10;;
18322;SDS011;9287;49.456;11.064;2024-03-08T08:42:37;24.63;;;17.37;;
18322;SDS011;9287;49.456;11.064;2024-03-08T08:45:05;21.10;;;15.63;;
18322;SDS011;9287;49.456;11.064;2024-03-08T08:47:44;22.63;;;15.93;;
18322;SDS011;9287;49.456;11.064;2024-03-08T08:50:13;20.90;;;15.33;;
18322;SDS011;9287;49.456;11.064;2024-03-08T08:52:42;23.50;;;15.70;;
18322;SDS011;9287;49.456;11.064;2024-03-08T08:55:10;19.50;;;14.97;;
18322;SDS011;9287;49.456;11.064;2024-03-08T08:57:40;19.33;;;13.97;;
18322;SDS011;9287;49.456;11.064;2024-03-08T09:00:09;16.27;;;12.47;;
18322;SDS011;9287;49.456;11.064;2024-03-08T09:02:41;21.33;;;14.20;;
18322;SDS011;9287;49.456;11.064;2024-03-08T09:05:11;19.10;;;13.63;;
18322;SDS011;9287;49.456;11.064;2024-03-08T09:07:41;18.20;;;13.07;;
18322;SDS011;9287;49.456;11.064;2024-03-08T09:10:10;19.67;;;13.43;;
18322;SDS011;9287;49.456;11.064;2024-03-08T09:12:43;19.40;;;14.10;;
18322;SDS011;9287;49.456;11.064;2024-03-08T09:15:11;18.50;;;13.10;;
18322;SDS011;9287;49.456;11.064;2024-03-08T09:17:39;18.73;;;13.50;;
18322;SDS011;9287;49.456;11.064;2024-03-08T09:20:09;19.93;;;14.43;;
18322;SDS011;9287;49.456;11.064;2024-03-08T09:22:43;18.97;;;12.53;;
18322;SDS011;9287;49.456;11.064;2024-03-08T09:25:11;18.43;;;13.00;;
18322;SDS011;9287;49.456;11.064;2024-03-08T09:27:39;20.33;;;12.90;;
18322;SDS011;9287;49.456;11.064;2024-03-08T09:30:07;17.10;;;12.43;;
18322;SDS011;9287;49.456;11.064;2024-03-08T09:32:38;15.00;;;11.47;;
18322;SDS011;9287;49.456;11.064;2024-03-08T09:35:06;18.37;;;12.23;;
18322;SDS011;9287;49.456;11.064;2024-03-08T09:37:36;19.93;;;13.00;;
18322;SDS011;9287;49.456;11.064;2024-03-08T09:40:05;19.00;;;12.53;;
18322;SDS011;9287;49.456;11.064;2024-03-08T09:42:36;17.93;;;12.60;;
18322;SDS011;9287;49.456;11.064;2024-03-08T09:45:05;17.80;;;11.87;;
18322;SDS011;9287;49.456;11.064;2024-03-08T09:47:37;15.53;;;12.17;;
18322;SDS011;9287;49.456;11.064;2024-03-08T09:50:08;17.73;;;12.57;;
18322;SDS011;9287;49.456;11.064;2024-03-08T09:52:38;16.67;;;11.37;;
18322;SDS011;9287;49.456;11.064;2024-03-08T09:55:06;15.13;;;11.27;;
18322;SDS011;9287;49.456;11.064;2024-03-08T09:57:34;20.03;;;11.07;;
18322;SDS011;9287;49.456;11.064;2024-03-08T10:00:04;15.73;;;11.23;;
18322;SDS011;9287;49.456;11.064;2024-03-08T10:02:45;15.60;;;11.97;;
18322;SDS011;9287;49.456;11.064;2024-03-08T10:05:12;16.33;;;11.43;;
18322;SDS011;9287;49.456;11.064;2024-03-08T10:07:42;15.63;;;11.07;;
18322;SDS011;9287;49.456;11.064;2024-03-08T10:10:10;16.80;;;12.17;;
18322;SDS011;9287;49.456;11.064;2024-03-08T10:12:39;16.63;;;11.83;;
18322;SDS011;9287;49.456;11.064;2024-03-08T10:15:07;15.27;;;11.70;;
18322;SDS011;9287;49.456;11.064;2024-03-08T10:17:35;15.30;;;11.40;;
18322;SDS011;9287;49.456;11.064;2024-03-08T10:20:03;16.87;;;11.30;;
18322;SDS011;9287;49.456;11.064;2024-03-08T10:22:43;17.17;;;11.30;;
18322;SDS011;9287;49.456;11.064;2024-03-08T10:25:27;14.97;;;10.23;;
18322;SDS011;9287;49.456;11.064;2024-03-08T10:27:56;14.67;;;10.03;;
18322;SDS011;9287;49.456;11.064;2024-03-08T10:30:24;15.47;;;10.60;;
18322;SDS011;9287;49.456;11.064;2024-03-08T10:32:51;12.57;;;9.87;;
18322;SDS011;9287;49.456;11.064;2024-03-08T10:35:19;13.53;;;10.17;;
18322;SDS011;9287;49.456;11.064;2024-03-08T10:37:50;14.23;;;10.37;;
18322;SDS011;9287;49.456;11.064;2024-03-08T10:40:25;14.47;;;10.63;;
18322;SDS011;9287;49.456;11.064;2024-03-08T10:42:54;12.90;;;9.80;;
18322;SDS011;9287;49.456;11.064;2024-03-08T10:45:29;13.40;;;9.47;;
18322;SDS011;9287;49.456;11.064;2024-03-08T10:48:04;10.77;;;9.00;;
18322;SDS011;9287;49.456;11.064;2024-03-08T10:50:38;11.57;;;8.43;;
18322;SDS011;9287;49.456;11.064;2024-03-08T10:53:09;10.87;;;8.33;;
18322;SDS011;9287;49.456;11.064;2024-03-08T10:55:38;12.40;;;9.07;;
18322;SDS011;9287;49.456;11.064;2024-03-08T10:58:08;11.33;;;9.67;;
18322;SDS011;9287;49.456;11.064;2024-03-08T11:00:36;12.50;;;8.97;;
18322;SDS011;9287;49.456;11.064;2024-03-08T11:03:05;11.40;;;8.57;;
18322;SDS011;9287;49.456;11.064;2024-03-08T11:05:36;14.63;;;8.70;;
18322;SDS011;9287;49.456;11.064;2024-03-08T11:08:17;10.70;;;8.30;;
18322;SDS011;9287;49.456;11.064;2024-03-08T11:10:49;12.17;;;7.93;;
18322;SDS011;9287;49.456;11.064;2024-03-08T11:13:34;10.97;;;7.30;;
18322;SDS011;9287;49.456;11.064;2024-03-08T11:16:06;10.67;;;7.53;;
18322;SDS011;9287;49.456;11.064;2024-03-08T11:18:36;10.93;;;7.73;;
18322;SDS011;9287;49.456;11.064;2024-03-08T11:21:05;9.27;;;6.63;;
18322;SDS011;9287;49.456;11.064;2024-03-08T11:23:40;8.97;;;7.13;;
18322;SDS011;9287;49.456;11.064;2024-03-08T11:26:17;7.80;;;6.37;;
18322;SDS011;9287;49.456;11.064;2024-03-08T11:28:48;9.13;;;7.20;;
18322;SDS011;9287;49.456;11.064;2024-03-08T11:31:24;9.90;;;7.20;;
18322;SDS011;9287;49.456;11.064;2024-03-08T11:33:55;9.50;;;7.13;;
18322;SDS011;9287;49.456;11.064;2024-03-08T11:36:24;10.40;;;7.27;;
18322;SDS011;9287;49.456;11.064;2024-03-08T11:38:53;10.90;;;7.77;;
18322;SDS011;9287;49.456;11.064;2024-03-08T11:41:25;10.73;;;6.60;;
18322;SDS011;9287;49.456;11.064;2024-03-08T11:44:04;9.27;;;6.37;;
18322;SDS011;9287;49.456;11.064;2024-03-08T11:46:33;9.53;;;7.10;;
18322;SDS011;9287;49.456;11.064;2024-03-08T11:49:01;9.57;;;6.97;;
18322;SDS011;9287;49.456;11.064;2024-03-08T11:51:30;8.57;;;7.10;;
18322;SDS011;9287;49.456;11.064;2024-03-08T11:54:01;8.63;;;7.33;;
18322;SDS011;9287;49.456;11.064;2024-03-08T11:56:30;9.10;;;6.67;;
18322;SDS011;9287;49.456;11.064;2024-03-08T12:01:44;7.10;;;5.70;;
18322;SDS011;9287;49.456;11.064;2024-03-08T12:04:28;6.87;;;6.03;;
18322;SDS011;9287;49.456;11.064;2024-03-08T12:06:59;8.17;;;6.80;;
18322;SDS011;9287;49.456;11.064;2024-03-08T12:09:29;8.57;;;6.20;;
18322;SDS011;9287;49.456;11.064;2024-03-08T12:11:58;8.97;;;5.93;;
18322;SDS011;9287;49.456;11.064;2024-03-08T12:14:26;7.70;;;6.33;;
18322;SDS011;9287;49.456;11.064;2024-03-08T12:16:54;7.57;;;6.17;;
18322;SDS011;9287;49.456;11.064;2024-03-08T12:19:24;9.07;;;6.50;;
18322;SDS011;9287;49.456;11.064;2024-03-08T12:21:52;8.00;;;6.37;;
18322;SDS011;9287;49.456;11.064;2024-03-08T12:24:20;9.83;;;6.27;;
18322;SDS011;9287;49.456;11.064;2024-03-08T12:26:52;10.03;;;6.13;;
18322;SDS011;9287;49.456;11.064;2024-03-08T12:29:23;9.53;;;6.00;;
18322;SDS011;9287;49.456;11.064;2024-03-08T12:31:54;7.63;;;6.37;;
18322;SDS011;9287;49.456;11.064;2024-03-08T12:34:24;7.30;;;5.57;;
18322;SDS011;9287;49.456;11.064;2024-03-08T12:36:54;8.00;;;6.47;;
18322;SDS011;9287;49.456;11.064;2024-03-08T12:39:22;8.60;;;6.03;;
18322;SDS011;9287;49.456;11.064;2024-03-08T12:41:55;11.27;;;6.80;;
18322;SDS011;9287;49.456;11.064;2024-03-08T12:44:24;8.87;;;6.37;;
18322;SDS011;9287;49.456;11.064;2024-03-08T12:46:54;9.43;;;5.93;;
18322;SDS011;9287;49.456;11.064;2024-03-08T12:49:22;11.40;;;6.20;;
18322;SDS011;9287;49.456;11.064;2024-03-08T12:51:52;6.13;;;5.27;;
18322;SDS011;9287;49.456;11.064;2024-03-08T12:54:20;6.90;;;5.53;;
18322;SDS011;9287;49.456;11.064;2024-03-08T12:56:51;6.87;;;6.17;;
18322;SDS011;9287;49.456;11.064;2024-03-08T12:59:22;6.83;;;5.73;;
18322;SDS011;9287;49.456;11.064;2024-03-08T13:01:50;10.67;;;6.73;;
18322;SDS011;9287;49.456;11.064;2024-03-08T13:04:22;7.27;;;6.10;;
18322;SDS011;9287;49.456;11.064;2024-03-08T13:06:52;6.00;;;5.47;;
18322;SDS011;9287;49.456;11.064;2024-03-08T13:09:21;8.37;;;6.30;;
18322;SDS011;9287;49.456;11.064;2024-03-08T13:11:50;9.73;;;6.77;;
18322;SDS011;9287;49.456;11.064;2024-03-08T13:14:20;8.07;;;5.90;;
18322;SDS011;9287;49.456;11.064;2024-03-08T13:16:49;7.57;;;5.97;;
18322;SDS011;9287;49.456;11.064;2024-03-08T13:19:18;7.27;;;5.40;;
18322;SDS011;9287;49.456;11.064;2024-03-08T13:21:48;7.13;;;5.13;;
18322;SDS011;9287;49.456;11.064;2024-03-08T13:24:17;8.63;;;5.97;;
18322;SDS011;9287;49.456;11.064;2024-03-08T13:26:46;7.53;;;5.20;;
18322;SDS011;9287;49.456;11.064;2024-03-08T13:29:14;7.60;;;5.03;;
18322;SDS011;9287;49.456;11.064;2024-03-08T13:31:43;9.73;;;5.43;;
18322;SDS011;9287;49.456;11.064;2024-03-08T13:34:14;8.50;;;4.97;;
18322;SDS011;9287;49.456;11.064;2024-03-08T13:36:42;6.23;;;5.20;;
18322;SDS011;9287;49.456;11.064;2024-03-08T13:39:11;8.00;;;5.40;;
18322;SDS011;9287;49.456;11.064;2024-03-08T13:41:42;8.10;;;6.03;;
18322;SDS011;9287;49.456;11.064;2024-03-08T13:44:11;8.20;;;6.37;;
18322;SDS011;9287;49.456;11.064;2024-03-08T13:46:39;7.63;;;5.80;;
18322;SDS011;9287;49.456;11.064;2024-03-08T13:49:08;9.97;;;6.47;;
18322;SDS011;9287;49.456;11.064;2024-03-08T13:51:38;8.40;;;6.53;;
18322;SDS011;9287;49.456;11.064;2024-03-08T13:54:07;11.57;;;9.13;;
18322;SDS011;9287;49.456;11.064;2024-03-08T13:56:36;11.90;;;8.63;;
18322;SDS011;9287;49.456;11.064;2024-03-08T13:59:04;15.83;;;8.50;;
18322;SDS011;9287;49.456;11.064;2024-03-08T14:01:31;9.87;;;7.43;;
18322;SDS011;9287;49.456;11.064;2024-03-08T14:04:02;10.03;;;7.90;;
18322;SDS011;9287;49.456;11.064;2024-03-08T14:06:30;12.90;;;8.63;;
18322;SDS011;9287;49.456;11.064;2024-03-08T14:09:00;15.30;;;8.03;;
18322;SDS011;9287;49.456;11.064;2024-03-08T14:11:28;11.33;;;8.43;;
18322;SDS011;9287;49.456;11.064;2024-03-08T14:13:56;10.87;;;8.77;;
18322;SDS011;9287;49.456;11.064;2024-03-08T14:16:24;10.20;;;8.47;;
18322;SDS011;9287;49.456;11.064;2024-03-08T14:18:52;11.90;;;8.23;;
18322;SDS011;9287;49.456;11.064;2024-03-08T14:21:20;10.50;;;7.90;;
18322;SDS011;9287;49.456;11.064;2024-03-08T14:23:48;10.27;;;8.20;;
18322;SDS011;9287;49.456;11.064;2024-03-08T14:26:20;10.70;;;7.73;;
18322;SDS011;9287;49.456;11.064;2024-03-08T14:28:48;12.07;;;7.97;;
18322;SDS011;9287;49.456;11.064;2024-03-08T14:31:18;10.37;;;7.43;;
18322;SDS011;9287;49.456;11.064;2024-03-08T14:33:46;12.47;;;8.33;;
18322;SDS011;9287;49.456;11.064;2024-03-08T14:36:15;12.30;;;8.33;;
18322;SDS011;9287;49.456;11.064;2024-03-08T14:38:46;11.93;;;8.57;;
18322;SDS011;9287;49.456;11.064;2024-03-08T14:41:14;10.00;;;7.30;;